createdAt,value
2019-04-21T00:03:40.615Z,11.5
2019-04-21T00:09:52.160Z,11.4
2019-04-21T00:14:05.521Z,11.2
2019-04-21T00:18:25.379Z,11.1
2019-04-21T00:24:24.744Z,11
2019-04-21T00:29:51.607Z,11
2019-04-21T00:33:53.684Z,10.9
2019-04-21T00:40:21.876Z,10.8
2019-04-21T00:44:38.717Z,10.7
2019-04-21T00:50:10.550Z,10.7
2019-04-21T00:55:38.351Z,10.6
2019-04-21T01:00:32.182Z,10.6
2019-04-21T01:05:55.896Z,10.5
2019-04-21T01:10:24.001Z,10.4
2019-04-21T01:15:48.564Z,10.4
2019-04-21T01:20:17.460Z,10.3
2019-04-21T01:25:11.708Z,10.2
2019-04-21T01:31:02.208Z,10.1
2019-04-21T01:35:57.814Z,10.1
2019-04-21T01:41:25.297Z,10
2019-04-21T01:46:08.913Z,9.9
2019-04-21T01:51:08.376Z,9.9
2019-04-21T01:56:23.656Z,9.8
2019-04-21T02:01:08.376Z,9.7
2019-04-21T02:06:50.056Z,9.6
2019-04-21T02:11:50.066Z,9.6
2019-04-21T02:16:51.875Z,9.6
2019-04-21T02:21:17.700Z,9.5
2019-04-21T02:26:58.995Z,9.6
2019-04-21T02:32:24.085Z,9.7
2019-04-21T02:52:52.118Z,9.7
2019-04-21T02:57:57.309Z,9.8
2019-04-21T03:03:12.802Z,9.6
2019-04-21T03:13:28.873Z,9.5
2019-04-21T03:23:35.990Z,9.1
2019-04-21T03:28:51.900Z,9.1
2019-04-21T03:38:45.056Z,8.7
2019-04-21T03:43:58.685Z,8.7
2019-04-21T03:49:02.020Z,8.7
2019-04-21T03:53:53.265Z,8.5
2019-04-21T04:14:12.510Z,8.5
2019-04-21T04:19:32.626Z,8.7
2019-04-21T04:24:21.391Z,9
2019-04-21T04:34:56.726Z,9.7
2019-04-21T04:40:09.012Z,10
2019-04-21T04:45:03.888Z,10.1
2019-04-21T04:50:09.672Z,10.2
2019-04-21T05:00:53.526Z,11
2019-04-21T05:05:18.846Z,11.4
2019-04-21T05:10:03.689Z,11.8
2019-04-21T05:21:29.584Z,12.7
2019-04-21T05:24:53.589Z,13.1
2019-04-21T05:29:29.478Z,13.5
2019-04-21T05:35:07.484Z,13.5
2019-04-21T05:39:55.699Z,13.8
2019-04-21T05:45:33.217Z,14.2
2019-04-21T05:50:21.495Z,14.6
2019-04-21T05:55:35.663Z,15.1
2019-04-21T06:01:14.372Z,15.8
2019-04-21T06:07:22.753Z,16.3
2019-04-21T06:10:52.133Z,16.7
2019-04-21T06:16:01.902Z,17.2
2019-04-21T06:21:04.892Z,17.4
2019-04-21T06:26:58.963Z,17.6
2019-04-21T06:31:33.423Z,18.5
2019-04-21T06:36:56.496Z,18.9
2019-04-21T06:41:37.766Z,19.4
2019-04-21T06:46:39.118Z,19.7
2019-04-21T06:51:46.657Z,19.9
2019-04-21T06:56:40.815Z,19.8
2019-04-21T07:02:08.007Z,20.1
2019-04-21T07:07:04.412Z,20.7
2019-04-21T07:11:54.700Z,20.8
2019-04-21T07:17:11.232Z,21.3
2019-04-21T07:22:02.890Z,21.3
2019-04-21T07:27:08.667Z,22.1
2019-04-21T07:32:26.278Z,22.8
2019-04-21T07:37:29.689Z,23.3
2019-04-21T07:42:04.384Z,23.8
2019-04-21T07:46:48.914Z,24.8
2019-04-21T07:52:39.212Z,25.9
2019-04-21T07:56:41.679Z,26.7
2019-04-21T08:02:33.889Z,29.2
2019-04-21T08:07:57.676Z,31.9
2019-04-21T08:12:28.611Z,33.3
2019-04-21T08:17:59.456Z,34.6
2019-04-21T08:23:04.175Z,34.5
2019-04-21T08:28:18.974Z,34.9
2019-04-21T08:33:52.355Z,34.5
2019-04-21T08:38:13.147Z,34.4
2019-04-21T08:48:41.876Z,39.3
2019-04-21T08:58:49.479Z,36.7
2019-04-21T09:03:35.300Z,38
2019-04-21T09:08:51.812Z,38.8
2019-04-21T09:13:36.628Z,37.5
2019-04-21T09:18:22.727Z,39.8
2019-04-21T09:23:44.461Z,41.8
2019-04-21T09:28:34.218Z,41.9
2019-04-21T09:33:00.464Z,40.9
2019-04-21T09:38:34.930Z,42.2
2019-04-21T09:43:30.512Z,39.2
2019-04-21T09:48:24.010Z,39
2019-04-21T09:53:34.903Z,40.9
2019-04-21T09:58:42.315Z,41.7
2019-04-21T10:03:26.293Z,41.8
2019-04-21T10:08:36.355Z,42.1
2019-04-21T10:13:44.275Z,40.3
2019-04-21T10:18:54.615Z,41.2
2019-04-21T10:23:54.233Z,43
2019-04-21T10:29:26.285Z,43.6
2019-04-21T10:34:11.507Z,43.5
2019-04-21T10:39:19.792Z,40.6
2019-04-21T10:44:29.414Z,40.1
2019-04-21T10:49:36.875Z,37
2019-04-21T10:55:48.370Z,36.4
2019-04-21T10:59:56.392Z,39.6
2019-04-21T11:04:58.511Z,41.3
2019-04-21T11:10:07.840Z,38.5
2019-04-21T11:20:20.373Z,37.8
2019-04-21T11:25:30.414Z,37.4
2019-04-21T11:30:37.683Z,36.9
2019-04-21T11:35:45.485Z,38
2019-04-21T11:40:53.932Z,36.7
2019-04-21T11:46:02.519Z,35.8
2019-04-21T11:51:11.006Z,36.9
2019-04-21T11:56:20.857Z,35.9
2019-04-21T12:01:21.231Z,35.8
2019-04-21T12:06:47.211Z,33.3
2019-04-21T12:11:36.712Z,31.2
2019-04-21T12:16:44.343Z,30.4
2019-04-21T12:22:21.234Z,31.6
2019-04-21T12:26:55.982Z,31.2
2019-04-21T12:32:05.530Z,29.7
2019-04-21T12:42:20.746Z,28.6
2019-04-21T12:47:21.728Z,27.6
2019-04-21T12:52:27.238Z,26.5
2019-04-21T12:57:39.196Z,26.3
2019-04-21T13:02:37.816Z,26
2019-04-21T13:07:51.178Z,26.2
2019-04-21T13:12:50.044Z,26.3
2019-04-21T13:17:50.207Z,26.3
2019-04-21T13:22:57.686Z,26.6
2019-04-21T13:28:06.958Z,26
2019-04-21T13:33:07.103Z,25.4
2019-04-21T13:38:40.433Z,24.6
2019-04-21T13:43:21.035Z,24.4
2019-04-21T13:48:30.647Z,24.4
2019-04-21T13:53:32.563Z,24.3
2019-04-21T13:58:42.243Z,23.9
2019-04-21T14:03:51.450Z,23.7
2019-04-21T14:09:01.141Z,23.1
2019-04-21T14:14:10.343Z,23.2
2019-04-21T14:19:19.260Z,23.5
2019-04-21T14:24:28.774Z,23.4
2019-04-21T14:29:37.651Z,23.2
2019-04-21T14:34:48.746Z,23.2
2019-04-21T14:40:08.892Z,23.1
2019-04-21T14:44:54.429Z,23
2019-04-21T14:50:02.949Z,23
2019-04-21T14:55:09.911Z,22.8
2019-04-21T15:00:16.486Z,22.7
2019-04-21T15:05:25.093Z,22.6
2019-04-21T15:10:38.855Z,22.3
2019-04-21T15:15:37.995Z,22.2
2019-04-21T15:20:50.509Z,22.2
2019-04-21T15:25:54.274Z,22.1
2019-04-21T15:31:04.905Z,21.8
2019-04-21T15:36:13.352Z,21.7
2019-04-21T15:41:24.638Z,21.6
2019-04-21T15:46:24.705Z,21.5
2019-04-21T15:51:33.729Z,21.4
2019-04-21T15:56:42.664Z,21.3
2019-04-21T16:01:50.481Z,21.2
2019-04-21T16:06:59.449Z,21.2
2019-04-21T16:11:59.963Z,21
2019-04-21T16:17:09.519Z,20.9
2019-04-21T16:22:08.517Z,20.8
2019-04-21T16:27:17.379Z,20.8
2019-04-21T16:32:28.002Z,20.6
2019-04-21T16:37:27.796Z,20.4
2019-04-21T16:42:36.217Z,20.3
2019-04-21T16:47:52.119Z,20.1
2019-04-21T16:52:56.213Z,19.9
2019-04-21T17:03:06.358Z,19.7
2019-04-21T17:08:11.010Z,19.5
2019-04-21T17:13:18.139Z,19.3
2019-04-21T17:19:11.238Z,19.1
2019-04-21T17:23:33.540Z,18.9
2019-04-21T17:28:31.919Z,18.9
2019-04-21T17:33:39.244Z,18.5
2019-04-21T17:38:39.634Z,18.4
2019-04-21T17:43:47.826Z,18
2019-04-21T17:48:47.162Z,17.7
2019-04-21T17:54:00.754Z,17.5
2019-04-21T18:00:23.341Z,17.2
2019-04-21T18:05:20.793Z,17.1
2019-04-21T18:10:21.695Z,16.9
2019-04-21T18:14:15.913Z,16.7
2019-04-21T18:19:19.274Z,16.4
2019-04-21T18:24:47.607Z,16.2
2019-04-21T18:29:29.692Z,16
2019-04-21T18:34:57.835Z,15.8
2019-04-21T18:40:21.192Z,15.6
2019-04-21T18:46:19.977Z,15.5
2019-04-21T18:49:52.346Z,15.3
2019-04-21T18:55:35.875Z,15.2
2019-04-21T19:00:17.757Z,15
2019-04-21T19:05:24.554Z,14.9
2019-04-21T19:11:23.541Z,14.7
2019-04-21T19:16:41.126Z,14.6
2019-04-21T19:21:24.075Z,14.5
2019-04-21T19:26:46.249Z,14.5
2019-04-21T19:35:50.899Z,14.3
2019-04-21T19:41:50.591Z,14.3
2019-04-21T19:46:58.081Z,14.2
2019-04-21T19:56:21.920Z,14.1
2019-04-21T20:01:31.739Z,14
2019-04-21T20:07:20.611Z,13.9
2019-04-21T20:12:49.635Z,13.8
2019-04-21T20:17:36.242Z,13.7
2019-04-21T20:21:54.586Z,13.6
2019-04-21T20:27:34.665Z,13.5
2019-04-21T20:33:41.157Z,13.4
2019-04-21T20:38:01.585Z,13.3
2019-04-21T20:43:08.102Z,13.1
2019-04-21T20:47:48.668Z,13
2019-04-21T20:53:29.943Z,12.9
2019-04-21T20:58:23.406Z,12.8
2019-04-21T21:03:43.012Z,12.8
2019-04-21T21:08:55.067Z,12.9
2019-04-21T21:14:06.782Z,13
2019-04-21T21:19:39.559Z,13.1
2019-04-21T21:24:08.405Z,13
2019-04-21T21:28:57.280Z,12.6
2019-04-21T21:34:40.267Z,12.4
2019-04-21T21:39:37.542Z,12.2
2019-04-21T21:43:39.427Z,12.2
2019-04-21T21:49:09.860Z,12
2019-04-21T21:53:48.445Z,11.9
2019-04-21T21:58:51.893Z,11.8
2019-04-21T22:04:22.690Z,11.7
2019-04-21T22:08:58.504Z,11.7
2019-04-21T22:14:28.606Z,11.7
2019-04-21T22:20:13.150Z,11.7
2019-04-21T22:24:46.225Z,11.6
2019-04-21T22:29:16.943Z,11.3
2019-04-21T22:34:51.306Z,11.2
2019-04-21T22:40:16.531Z,11.1
2019-04-21T22:44:28.129Z,11
2019-04-21T22:49:36.861Z,11.2
2019-04-21T22:54:51.006Z,11.2
2019-04-21T23:00:07.824Z,11.2
2019-04-21T23:05:02.468Z,11.2
2019-04-21T23:10:03.336Z,11.2
2019-04-21T23:15:33.185Z,11.2
2019-04-21T23:21:13.456Z,11.2
2019-04-21T23:26:04.530Z,11.2
2019-04-21T23:31:24.308Z,11.1
2019-04-21T23:35:38.499Z,11.1
2019-04-21T23:40:27.786Z,11.1
2019-04-21T23:45:43.065Z,11
2019-04-21T23:51:13.484Z,11
2019-04-21T23:55:39.015Z,11
